Time;durP1;ratioP1;P1;durP2;ratioP2;P2;SDS_P1;SDS_P2;PMS_P1;PMS_P2;Temp;Humidity;BMP_temperature;BMP_pressure;BME280_temperature;BME280_humidity;BME280_pressure;Samples;Min_cycle;Max_cycle;Signal;HPM_P1;HPM_P2
2023/10/04 05:00:55;;;;;;;39.83;8.33;;;;;;;;;;5748483;23;20571;-70
2023/10/04 05:03:21;;;;;;;17.13;6.80;;;;;;;;;;4956105;28;20776;-70
2023/10/04 05:05:50;;;;;;;16.73;7.47;;;;;;;;;;4955571;29;20409;-71
2023/10/04 05:08:17;;;;;;;15.83;5.63;;;;;;;;;;4955548;29;20416;-74
2023/10/04 05:10:44;;;;;;;14.63;6.53;;;;;;;;;;4955816;28;20436;-71
2023/10/04 05:13:14;;;;;;;13.03;6.00;;;;;;;;;;4955524;28;20408;-71
2023/10/04 05:15:42;;;;;;;20.00;7.40;;;;;;;;;;4954961;28;20544;-70
2023/10/04 05:18:15;;;;;;;12.00;7.00;;;;;;;;;;4955016;28;20839;-68
2023/10/04 05:20:45;;;;;;;12.20;5.73;;;;;;;;;;4955412;28;20425;-68
2023/10/04 05:23:11;;;;;;;16.87;6.80;;;;;;;;;;4955319;28;20417;-70
2023/10/04 05:25:37;;;;;;;14.57;6.57;;;;;;;;;;4955000;29;20416;-68
2023/10/04 05:28:09;;;;;;;15.37;6.70;;;;;;;;;;4939799;29;20439;-67
2023/10/04 05:30:37;;;;;;;16.10;7.13;;;;;;;;;;4936267;29;20517;-68
2023/10/04 05:33:03;;;;;;;20.27;7.23;;;;;;;;;;4935993;29;20426;-67
2023/10/04 05:35:29;;;;;;;10.97;5.57;;;;;;;;;;4934511;29;20476;-68
2023/10/04 05:37:55;;;;;;;13.20;5.60;;;;;;;;;;4935429;29;20425;-68
2023/10/04 05:40:27;;;;;;;11.83;5.00;;;;;;;;;;4935359;29;20873;-68
2023/10/04 05:42:54;;;;;;;14.40;5.20;;;;;;;;;;4935598;29;20418;-69
2023/10/04 05:45:21;;;;;;;13.50;5.77;;;;;;;;;;4935605;29;20512;-67
2023/10/04 05:47:48;;;;;;;19.17;6.30;;;;;;;;;;4935560;29;20505;-68
2023/10/04 05:50:17;;;;;;;14.23;6.43;;;;;;;;;;4935456;29;20517;-67
2023/10/04 05:52:44;;;;;;;22.33;7.13;;;;;;;;;;4935498;29;20755;-68
2023/10/04 05:55:10;;;;;;;19.67;8.80;;;;;;;;;;4935284;29;20869;-67
2023/10/04 05:57:37;;;;;;;18.50;6.67;;;;;;;;;;4935228;29;20817;-71
2023/10/04 06:00:22;;;;;;;12.50;6.30;;;;;;;;;;4935447;29;20538;-69
2023/10/04 06:02:49;;;;;;;21.37;8.10;;;;;;;;;;4935335;29;20425;-69
2023/10/04 06:05:16;;;;;;;15.00;7.37;;;;;;;;;;4935226;29;20485;-69
2023/10/04 06:07:43;;;;;;;15.27;6.70;;;;;;;;;;4933764;29;20406;-69
2023/10/04 06:10:11;;;;;;;41.27;13.13;;;;;;;;;;4935758;29;20405;-68
2023/10/04 06:12:38;;;;;;;19.27;8.40;;;;;;;;;;4936524;29;20925;-68
2023/10/04 06:15:04;;;;;;;10.77;6.13;;;;;;;;;;4935846;29;20398;-68
2023/10/04 06:17:31;;;;;;;18.80;6.80;;;;;;;;;;4934994;29;20416;-68
2023/10/04 06:19:58;;;;;;;18.93;6.67;;;;;;;;;;4935074;29;20406;-68
2023/10/04 06:22:24;;;;;;;18.37;6.47;;;;;;;;;;4935009;29;20936;-69
2023/10/04 06:24:50;;;;;;;12.57;6.07;;;;;;;;;;4937749;29;20424;-68
2023/10/04 06:27:16;;;;;;;19.10;7.13;;;;;;;;;;4953827;28;20431;-69
2023/10/04 06:29:43;;;;;;;15.60;6.27;;;;;;;;;;4954110;29;20504;-70
2023/10/04 06:32:09;;;;;;;15.80;6.57;;;;;;;;;;4954122;28;20472;-71
2023/10/04 06:34:35;;;;;;;13.03;6.60;;;;;;;;;;4954095;28;20938;-70
2023/10/04 06:37:01;;;;;;;14.23;7.20;;;;;;;;;;4942845;29;20457;-70
2023/10/04 06:39:27;;;;;;;17.20;7.20;;;;;;;;;;4948480;29;20827;-72
2023/10/04 06:41:53;;;;;;;14.73;6.27;;;;;;;;;;4953998;29;20425;-72
2023/10/04 06:44:19;;;;;;;11.80;5.77;;;;;;;;;;4953846;29;20417;-72
2023/10/04 06:46:45;;;;;;;12.90;6.20;;;;;;;;;;4952914;29;20455;-73
2023/10/04 06:49:11;;;;;;;18.87;5.77;;;;;;;;;;4953796;29;20413;-69
2023/10/04 06:51:37;;;;;;;16.27;5.23;;;;;;;;;;4953537;29;20761;-70
2023/10/04 06:54:05;;;;;;;15.97;5.33;;;;;;;;;;4954064;29;20502;-70
2023/10/04 06:56:31;;;;;;;8.33;4.87;;;;;;;;;;4953352;28;20804;-70
2023/10/04 06:58:58;;;;;;;17.00;5.83;;;;;;;;;;4953479;28;20432;-69
2023/10/04 07:01:24;;;;;;;22.77;5.30;;;;;;;;;;4953547;29;20451;-70
2023/10/04 07:03:50;;;;;;;11.80;4.50;;;;;;;;;;4953876;29;20440;-69
2023/10/04 07:06:17;;;;;;;10.47;4.93;;;;;;;;;;4953511;28;20424;-69
2023/10/04 07:08:43;;;;;;;12.13;5.50;;;;;;;;;;4953623;29;20429;-69
2023/10/04 07:11:09;;;;;;;12.27;5.40;;;;;;;;;;4953688;28;20859;-70
2023/10/04 07:13:35;;;;;;;20.20;6.37;;;;;;;;;;4953497;29;20442;-69
2023/10/04 07:16:01;;;;;;;22.00;6.97;;;;;;;;;;4953143;29;20532;-69
2023/10/04 07:18:27;;;;;;;17.83;6.50;;;;;;;;;;4953312;28;20416;-70
2023/10/04 07:20:53;;;;;;;13.43;6.07;;;;;;;;;;4944630;29;20828;-70
2023/10/04 07:23:20;;;;;;;12.93;5.93;;;;;;;;;;4938185;29;20564;-70
2023/10/04 07:25:46;;;;;;;13.63;6.47;;;;;;;;;;4953290;28;20412;-73
2023/10/04 07:28:12;;;;;;;19.33;6.87;;;;;;;;;;4953250;28;20424;-71
2023/10/04 07:30:40;;;;;;;17.77;7.60;;;;;;;;;;4953181;29;20948;-71
2023/10/04 07:33:07;;;;;;;12.13;5.90;;;;;;;;;;4942692;28;20658;-70
2023/10/04 07:35:33;;;;;;;16.80;6.13;;;;;;;;;;4948225;29;20499;-70
2023/10/04 07:37:59;;;;;;;16.40;6.20;;;;;;;;;;4953476;28;20427;-71
2023/10/04 07:40:26;;;;;;;17.10;5.60;;;;;;;;;;4955623;28;20412;-72
2023/10/04 07:42:53;;;;;;;14.80;5.67;;;;;;;;;;4957152;29;20407;-72
2023/10/04 07:45:20;;;;;;;11.60;4.63;;;;;;;;;;4956943;28;20439;-72
2023/10/04 07:47:46;;;;;;;16.63;5.50;;;;;;;;;;4956739;29;20496;-73
2023/10/04 07:50:14;;;;;;;17.33;4.83;;;;;;;;;;4957134;29;20839;-73
2023/10/04 07:52:41;;;;;;;12.80;4.77;;;;;;;;;;4962669;28;20428;-75
2023/10/04 07:55:15;;;;;;;17.87;4.90;;;;;;;;;;4938678;29;20453;-74
2023/10/04 07:57:42;;;;;;;19.43;4.80;;;;;;;;;;4983233;28;20483;-74
2023/10/04 08:00:14;;;;;;;12.10;5.33;;;;;;;;;;4956790;29;20404;-75
2023/10/04 08:02:46;;;;;;;8.90;4.33;;;;;;;;;;4949849;29;20464;-75
2023/10/04 08:05:12;;;;;;;16.23;4.90;;;;;;;;;;4938447;29;20429;-75
2023/10/04 08:07:38;;;;;;;13.40;4.50;;;;;;;;;;4939348;29;20457;-75
2023/10/04 08:10:04;;;;;;;15.43;5.50;;;;;;;;;;4979512;28;20455;-75
2023/10/04 08:12:30;;;;;;;13.73;5.27;;;;;;;;;;4956493;28;20890;-76
2023/10/04 08:15:00;;;;;;;13.50;4.73;;;;;;;;;;4956350;29;20440;-75
2023/10/04 08:17:26;;;;;;;24.53;5.17;;;;;;;;;;4956111;28;20603;-75
2023/10/04 08:19:52;;;;;;;11.77;4.13;;;;;;;;;;4947981;29;20918;-75
2023/10/04 08:22:18;;;;;;;11.47;4.27;;;;;;;;;;4937135;29;20430;-75
2023/10/04 08:24:46;;;;;;;10.90;4.33;;;;;;;;;;4937278;29;20446;-76
2023/10/04 08:27:12;;;;;;;11.70;4.80;;;;;;;;;;4947811;29;20413;-74
2023/10/04 08:29:38;;;;;;;16.17;4.83;;;;;;;;;;4956214;29;20415;-75
2023/10/04 08:32:04;;;;;;;8.43;3.50;;;;;;;;;;4955453;29;20449;-74
2023/10/04 08:34:30;;;;;;;11.47;4.70;;;;;;;;;;4946192;29;20432;-74
2023/10/04 08:36:56;;;;;;;10.87;3.50;;;;;;;;;;4946885;29;20473;-74
2023/10/04 08:39:22;;;;;;;9.00;2.63;;;;;;;;;;4945490;29;20413;-75
2023/10/04 08:41:48;;;;;;;4.90;2.27;;;;;;;;;;4937688;29;20464;-75
2023/10/04 08:44:15;;;;;;;6.70;1.70;;;;;;;;;;4936855;29;20546;-74
2023/10/04 08:46:43;;;;;;;16.57;2.47;;;;;;;;;;4936932;29;20444;-74
2023/10/04 08:49:11;;;;;;;5.63;2.10;;;;;;;;;;4944101;29;20500;-77
2023/10/04 08:52:06;;;;;;;9.13;2.20;;;;;;;;;;4935908;29;20489;-76
2023/10/04 08:54:32;;;;;;;6.70;2.10;;;;;;;;;;4939781;29;20426;-75
2023/10/04 08:57:05;;;;;;;9.50;2.77;;;;;;;;;;4936026;29;20473;-76
2023/10/04 08:59:32;;;;;;;7.60;2.33;;;;;;;;;;4936255;29;20406;-75
2023/10/04 09:02:01;;;;;;;5.77;2.03;;;;;;;;;;4951037;28;20464;-76
2023/10/04 09:04:27;;;;;;;5.47;2.20;;;;;;;;;;4936182;29;20425;-76
2023/10/04 09:06:53;;;;;;;6.33;1.97;;;;;;;;;;4942506;29;20475;-76
2023/10/04 09:09:20;;;;;;;5.47;3.20;;;;;;;;;;4938698;29;20432;-76
2023/10/04 09:11:46;;;;;;;10.40;2.70;;;;;;;;;;4955188;28;20440;-76
2023/10/04 09:14:16;;;;;;;13.50;3.00;;;;;;;;;;4955154;29;20472;-75
2023/10/04 09:16:42;;;;;;;3.00;1.70;;;;;;;;;;4954983;28;20464;-76
2023/10/04 09:19:13;;;;;;;4.53;1.87;;;;;;;;;;4950556;28;20449;-76
2023/10/04 09:21:40;;;;;;;5.90;1.80;;;;;;;;;;4945965;29;20453;-76
2023/10/04 09:24:08;;;;;;;5.50;2.00;;;;;;;;;;4948438;29;20501;-76
2023/10/04 09:26:36;;;;;;;18.33;3.30;;;;;;;;;;4945724;29;20559;-76
2023/10/04 09:29:02;;;;;;;4.47;1.60;;;;;;;;;;4937799;29;20560;-76
2023/10/04 09:31:29;;;;;;;12.43;2.30;;;;;;;;;;4935726;29;21020;-75
2023/10/04 09:33:57;;;;;;;6.40;2.23;;;;;;;;;;4937232;29;20909;-75
2023/10/04 09:36:33;;;;;;;7.60;2.10;;;;;;;;;;4935392;29;20458;-75
2023/10/04 09:39:09;;;;;;;7.23;2.33;;;;;;;;;;4942521;29;20437;-75
2023/10/04 09:41:42;;;;;;;5.43;2.20;;;;;;;;;;4939641;29;20486;-75
2023/10/04 09:44:25;;;;;;;4.83;2.10;;;;;;;;;;4943187;29;20510;-74
2023/10/04 09:47:01;;;;;;;5.90;1.90;;;;;;;;;;4945158;29;20456;-75
2023/10/04 09:49:29;;;;;;;5.20;2.30;;;;;;;;;;4935398;29;20475;-75
2023/10/04 09:51:55;;;;;;;4.70;2.10;;;;;;;;;;4950704;29;20437;-75
2023/10/04 09:54:25;;;;;;;10.97;2.30;;;;;;;;;;4935379;29;20934;-75
2023/10/04 09:56:53;;;;;;;6.50;2.23;;;;;;;;;;4935013;29;20472;-75
2023/10/04 09:59:20;;;;;;;14.47;3.17;;;;;;;;;;4954474;28;20986;-76
2023/10/04 10:01:55;;;;;;;8.30;2.53;;;;;;;;;;4938644;28;20998;-75
2023/10/04 10:04:25;;;;;;;8.33;2.70;;;;;;;;;;4942173;29;20475;-76
2023/10/04 10:07:10;;;;;;;10.63;3.50;;;;;;;;;;4946400;29;20440;-74
2023/10/04 10:09:38;;;;;;;10.73;2.40;;;;;;;;;;4940768;29;20467;-75
2023/10/04 10:12:04;;;;;;;5.90;2.47;;;;;;;;;;4938200;28;20507;-76
2023/10/04 10:14:31;;;;;;;4.10;2.60;;;;;;;;;;4951578;28;20452;-76
2023/10/04 10:16:57;;;;;;;7.97;2.57;;;;;;;;;;4952232;28;21051;-76
2023/10/04 10:19:24;;;;;;;4.50;2.03;;;;;;;;;;4956552;28;20516;-75
2023/10/04 10:22:15;;;;;;;5.53;2.30;;;;;;;;;;4952800;28;20464;-74
2023/10/04 10:24:48;;;;;;;5.70;1.90;;;;;;;;;;4951063;28;20492;-76
2023/10/04 10:27:15;;;;;;;4.30;2.03;;;;;;;;;;4953142;28;20920;-75
2023/10/04 10:29:43;;;;;;;4.77;2.27;;;;;;;;;;4952795;28;20568;-75
2023/10/04 10:32:22;;;;;;;5.33;2.07;;;;;;;;;;4953212;28;20874;-71
2023/10/04 10:34:50;;;;;;;4.93;1.93;;;;;;;;;;4948117;28;20425;-71
2023/10/04 10:37:16;;;;;;;3.67;1.80;;;;;;;;;;4956342;28;21437;-72
2023/10/04 10:39:45;;;;;;;9.20;2.33;;;;;;;;;;4950660;28;20517;-73
2023/10/04 10:42:11;;;;;;;5.00;2.00;;;;;;;;;;4959419;28;20439;-71
2023/10/04 10:44:39;;;;;;;8.53;2.50;;;;;;;;;;4954529;29;20413;-73
2023/10/04 10:47:08;;;;;;;10.63;2.07;;;;;;;;;;4954067;28;20424;-69
2023/10/04 10:49:40;;;;;;;6.33;2.03;;;;;;;;;;4958715;28;20442;-68
2023/10/04 10:52:25;;;;;;;3.70;1.90;;;;;;;;;;4965083;28;20435;-69
2023/10/04 10:54:55;;;;;;;5.33;1.93;;;;;;;;;;4937148;29;20512;-69
2023/10/04 10:57:23;;;;;;;3.73;1.77;;;;;;;;;;4934682;29;20532;-70
2023/10/04 10:59:50;;;;;;;7.50;2.53;;;;;;;;;;4940232;29;20440;-68
2023/10/04 11:02:16;;;;;;;4.10;2.03;;;;;;;;;;4957456;28;20468;-75
2023/10/04 11:04:42;;;;;;;4.80;2.70;;;;;;;;;;4960222;28;20436;-70
2023/10/04 11:07:11;;;;;;;9.67;2.50;;;;;;;;;;4959154;28;20463;-70
2023/10/04 11:09:40;;;;;;;3.93;1.93;;;;;;;;;;4952772;29;20948;-69
2023/10/04 11:12:07;;;;;;;11.20;2.50;;;;;;;;;;4936373;29;20443;-71
2023/10/04 11:14:34;;;;;;;8.40;2.80;;;;;;;;;;4946325;29;20413;-71
2023/10/04 11:17:00;;;;;;;8.47;2.77;;;;;;;;;;4948276;29;20522;-71
2023/10/04 11:19:26;;;;;;;8.30;2.40;;;;;;;;;;4933950;29;20774;-70
2023/10/04 11:21:52;;;;;;;9.63;2.43;;;;;;;;;;4934104;29;20448;-71
2023/10/04 11:24:20;;;;;;;8.07;2.50;;;;;;;;;;4937046;29;20535;-69
2023/10/04 11:26:46;;;;;;;11.70;2.57;;;;;;;;;;4946214;28;20437;-72
2023/10/04 11:29:14;;;;;;;6.77;2.13;;;;;;;;;;4933968;29;20425;-71
2023/10/04 11:31:40;;;;;;;5.20;2.30;;;;;;;;;;4952542;29;20461;-72
2023/10/04 11:34:08;;;;;;;7.43;2.63;;;;;;;;;;4951171;29;20444;-70
2023/10/04 11:36:36;;;;;;;9.07;2.30;;;;;;;;;;4937151;29;20461;-71
2023/10/04 11:39:09;;;;;;;6.13;2.17;;;;;;;;;;4937494;29;20992;-72
2023/10/04 11:41:37;;;;;;;8.47;2.37;;;;;;;;;;4940096;28;20968;-74
2023/10/04 11:44:04;;;;;;;7.87;2.37;;;;;;;;;;4933824;29;20449;-68
2023/10/04 11:46:30;;;;;;;5.60;2.30;;;;;;;;;;4943864;29;20425;-72
2023/10/04 11:49:11;;;;;;;4.80;1.63;;;;;;;;;;4943705;29;20416;-72
2023/10/04 11:51:41;;;;;;;9.93;2.27;;;;;;;;;;4952987;28;20436;-72
2023/10/04 11:54:07;;;;;;;3.63;1.97;;;;;;;;;;4953237;29;20413;-70
2023/10/04 11:56:40;;;;;;;4.10;1.90;;;;;;;;;;4952101;29;20472;-70
2023/10/04 11:59:06;;;;;;;12.27;1.97;;;;;;;;;;4953259;28;20427;-71
2023/10/04 12:01:32;;;;;;;4.13;1.93;;;;;;;;;;4953219;29;20488;-71
2023/10/04 12:03:58;;;;;;;9.40;2.50;;;;;;;;;;4952872;29;20444;-72
2023/10/04 12:06:25;;;;;;;5.50;1.93;;;;;;;;;;4952698;28;20499;-71
2023/10/04 12:08:53;;;;;;;6.77;1.97;;;;;;;;;;4952714;28;20460;-71
2023/10/04 12:11:22;;;;;;;4.73;2.50;;;;;;;;;;4953007;29;20955;-72
2023/10/04 12:13:49;;;;;;;8.00;1.67;;;;;;;;;;4952986;28;20442;-72
2023/10/04 12:16:16;;;;;;;10.53;3.00;;;;;;;;;;4952542;29;20876;-71
2023/10/04 12:18:43;;;;;;;4.87;2.00;;;;;;;;;;4948131;29;20425;-70
2023/10/04 12:21:09;;;;;;;3.33;1.83;;;;;;;;;;4942627;29;20469;-71
2023/10/04 12:23:35;;;;;;;5.47;2.20;;;;;;;;;;4944293;29;20963;-72
2023/10/04 12:26:01;;;;;;;5.87;1.97;;;;;;;;;;4949618;28;20444;-73
2023/10/04 12:28:29;;;;;;;3.40;1.93;;;;;;;;;;4955938;29;20523;-72
2023/10/04 12:31:01;;;;;;;3.87;1.70;;;;;;;;;;4948198;29;20829;-73
2023/10/04 12:33:27;;;;;;;3.37;1.90;;;;;;;;;;4954549;29;20433;-73
2023/10/04 12:35:54;;;;;;;4.37;1.87;;;;;;;;;;4949030;29;20833;-71
2023/10/04 12:38:24;;;;;;;3.90;1.60;;;;;;;;;;4946239;28;20434;-71
2023/10/04 12:40:50;;;;;;;3.93;1.83;;;;;;;;;;4948363;29;20444;-70
2023/10/04 12:43:16;;;;;;;6.87;2.07;;;;;;;;;;4947280;28;20421;-71
2023/10/04 12:45:42;;;;;;;8.90;2.33;;;;;;;;;;4945981;29;20793;-70
2023/10/04 12:48:08;;;;;;;4.20;1.70;;;;;;;;;;4938787;29;20470;-71
2023/10/04 12:50:35;;;;;;;4.03;1.97;;;;;;;;;;4955293;29;20818;-71
2023/10/04 12:53:01;;;;;;;3.80;2.00;;;;;;;;;;4955356;28;20425;-70
2023/10/04 12:55:27;;;;;;;5.80;1.97;;;;;;;;;;4954986;29;20424;-71
2023/10/04 12:57:53;;;;;;;4.73;1.57;;;;;;;;;;4954955;29;20417;-72
2023/10/04 13:00:25;;;;;;;6.70;2.30;;;;;;;;;;4954580;29;20437;-72
2023/10/04 13:02:56;;;;;;;4.27;1.73;;;;;;;;;;4954513;28;20421;-73
2023/10/04 13:05:22;;;;;;;2.63;1.70;;;;;;;;;;4940704;28;20434;-72
2023/10/04 13:07:48;;;;;;;2.90;1.73;;;;;;;;;;4945766;29;20425;-75
2023/10/04 13:10:15;;;;;;;4.80;2.20;;;;;;;;;;4938887;29;20420;-72
2023/10/04 13:12:41;;;;;;;7.93;2.17;;;;;;;;;;4936859;29;20414;-73
2023/10/04 13:15:08;;;;;;;6.90;2.20;;;;;;;;;;4935617;29;20410;-72
2023/10/04 13:17:39;;;;;;;7.00;2.10;;;;;;;;;;4953445;29;20923;-72
2023/10/04 13:20:08;;;;;;;5.83;2.10;;;;;;;;;;4944444;28;20430;-73
2023/10/04 13:22:34;;;;;;;5.33;2.00;;;;;;;;;;4935856;29;20406;-71
2023/10/04 13:25:03;;;;;;;13.00;2.10;;;;;;;;;;4935960;29;20898;-73
2023/10/04 13:27:30;;;;;;;5.90;2.23;;;;;;;;;;4935775;29;20472;-74
2023/10/04 13:29:56;;;;;;;5.73;2.00;;;;;;;;;;4936267;29;20414;-72
2023/10/04 13:32:23;;;;;;;8.00;1.90;;;;;;;;;;4936079;29;20433;-72
2023/10/04 13:34:49;;;;;;;5.23;2.10;;;;;;;;;;4936093;29;20457;-73
2023/10/04 13:37:15;;;;;;;5.87;2.57;;;;;;;;;;4935463;29;20560;-72
2023/10/04 13:39:41;;;;;;;7.97;2.73;;;;;;;;;;4936075;29;20496;-72
2023/10/04 13:42:09;;;;;;;4.50;2.17;;;;;;;;;;4936985;29;20449;-73
2023/10/04 13:44:34;;;;;;;3.90;1.90;;;;;;;;;;4935965;29;20935;-71
2023/10/04 13:47:00;;;;;;;4.33;1.80;;;;;;;;;;4935737;29;20413;-74
2023/10/04 13:49:28;;;;;;;4.50;1.80;;;;;;;;;;4935771;29;20921;-71
2023/10/04 13:51:57;;;;;;;7.70;2.40;;;;;;;;;;4935841;29;20952;-73
2023/10/04 13:54:23;;;;;;;4.20;2.27;;;;;;;;;;4935830;29;20414;-73
2023/10/04 13:56:51;;;;;;;3.63;1.87;;;;;;;;;;4935573;29;20492;-77
2023/10/04 13:59:17;;;;;;;4.43;2.13;;;;;;;;;;4935482;29;20406;-72
2023/10/04 14:01:43;;;;;;;11.63;2.63;;;;;;;;;;4935448;29;20464;-72
2023/10/04 14:04:09;;;;;;;4.17;1.90;;;;;;;;;;4935202;29;20493;-72
2023/10/04 14:06:35;;;;;;;5.87;2.07;;;;;;;;;;4935136;29;20425;-73
2023/10/04 14:09:10;;;;;;;4.40;1.83;;;;;;;;;;4935158;29;20414;-73
2023/10/04 14:11:37;;;;;;;4.13;1.80;;;;;;;;;;4935987;29;20925;-73
2023/10/04 14:14:07;;;;;;;3.97;2.13;;;;;;;;;;4935435;29;20441;-72
2023/10/04 14:16:33;;;;;;;3.60;1.70;;;;;;;;;;4933618;29;20500;-70
2023/10/04 14:18:59;;;;;;;4.50;2.13;;;;;;;;;;4935175;29;20477;-71
2023/10/04 14:21:25;;;;;;;6.00;2.47;;;;;;;;;;4935209;29;20549;-70
2023/10/04 14:23:51;;;;;;;6.13;2.13;;;;;;;;;;4935458;29;20414;-71
2023/10/04 14:26:20;;;;;;;6.73;2.00;;;;;;;;;;4935046;29;20417;-73
2023/10/04 14:28:46;;;;;;;5.33;2.20;;;;;;;;;;4935363;29;20417;-72
2023/10/04 14:31:13;;;;;;;4.40;1.60;;;;;;;;;;4934968;29;20448;-73
2023/10/04 14:33:39;;;;;;;4.00;1.77;;;;;;;;;;4934804;29;20817;-73
2023/10/04 14:36:05;;;;;;;3.40;1.70;;;;;;;;;;4938298;29;20460;-71
2023/10/04 14:38:33;;;;;;;4.90;2.13;;;;;;;;;;4954455;29;20428;-71
2023/10/04 14:40:59;;;;;;;9.37;2.30;;;;;;;;;;4943236;28;20445;-73
2023/10/04 14:43:25;;;;;;;5.40;2.13;;;;;;;;;;4934450;29;20469;-72
2023/10/04 14:45:52;;;;;;;8.13;2.43;;;;;;;;;;4933486;29;20417;-72
2023/10/04 14:48:19;;;;;;;6.23;2.30;;;;;;;;;;4951612;28;20437;-73
2023/10/04 14:50:52;;;;;;;5.03;2.20;;;;;;;;;;4935160;29;20453;-72
2023/10/04 14:53:19;;;;;;;5.47;2.10;;;;;;;;;;4934522;29;20429;-72
2023/10/04 14:55:46;;;;;;;10.43;2.30;;;;;;;;;;4933917;29;20465;-72
2023/10/04 14:58:12;;;;;;;5.00;2.00;;;;;;;;;;4934624;29;20410;-72
2023/10/04 15:00:38;;;;;;;11.17;2.90;;;;;;;;;;4934526;29;20914;-72
2023/10/04 15:03:04;;;;;;;4.07;2.10;;;;;;;;;;4934816;29;20890;-72
2023/10/04 15:05:30;;;;;;;3.80;1.70;;;;;;;;;;4934523;29;20414;-70
2023/10/04 15:07:58;;;;;;;5.23;2.60;;;;;;;;;;4934981;29;20763;-73
2023/10/04 15:10:24;;;;;;;7.30;2.03;;;;;;;;;;4935423;29;20413;-70
2023/10/04 15:12:52;;;;;;;7.33;1.70;;;;;;;;;;4936003;29;20906;-72
2023/10/04 15:15:18;;;;;;;4.13;1.90;;;;;;;;;;4934962;29;20777;-70
2023/10/04 15:17:44;;;;;;;5.60;2.53;;;;;;;;;;4934139;29;20461;-71
2023/10/04 15:20:11;;;;;;;4.87;1.90;;;;;;;;;;4934153;29;20890;-71
2023/10/04 15:22:40;;;;;;;3.17;1.70;;;;;;;;;;4934219;29;20508;-70
2023/10/04 15:25:11;;;;;;;5.00;1.97;;;;;;;;;;4934072;29;20788;-72
2023/10/04 15:27:38;;;;;;;2.53;1.73;;;;;;;;;;4933705;29;20525;-72
2023/10/04 15:30:04;;;;;;;6.47;2.30;;;;;;;;;;4934220;29;20492;-71
2023/10/04 15:32:32;;;;;;;5.13;2.00;;;;;;;;;;4933596;29;20456;-72
2023/10/04 15:35:00;;;;;;;5.10;2.63;;;;;;;;;;4933486;29;20548;-70
2023/10/04 15:37:26;;;;;;;5.73;2.37;;;;;;;;;;4933271;29;21067;-73
2023/10/04 15:39:52;;;;;;;5.63;2.13;;;;;;;;;;4934720;29;20534;-73
2023/10/04 15:42:19;;;;;;;6.67;2.27;;;;;;;;;;4933867;29;20437;-73
2023/10/04 15:44:45;;;;;;;5.83;2.03;;;;;;;;;;4934241;29;20453;-72
2023/10/04 15:47:11;;;;;;;5.60;2.23;;;;;;;;;;4933618;29;20499;-72
2023/10/04 15:49:38;;;;;;;10.60;2.60;;;;;;;;;;4934292;29;20549;-72
2023/10/04 15:52:05;;;;;;;7.20;2.63;;;;;;;;;;4933922;29;20520;-72
2023/10/04 15:54:31;;;;;;;4.80;2.07;;;;;;;;;;4933918;29;20471;-71
2023/10/04 15:56:56;;;;;;;6.07;2.30;;;;;;;;;;4933450;29;20477;-72
2023/10/04 15:59:23;;;;;;;6.47;2.17;;;;;;;;;;4933792;29;20469;-72
2023/10/04 16:01:48;;;;;;;4.63;2.43;;;;;;;;;;4936260;29;20849;-72
2023/10/04 16:04:16;;;;;;;6.00;2.50;;;;;;;;;;4937560;29;20413;-72
2023/10/04 16:06:42;;;;;;;10.43;2.20;;;;;;;;;;4937362;29;20422;-73
2023/10/04 16:09:10;;;;;;;4.13;2.43;;;;;;;;;;4937647;29;20424;-73
2023/10/04 16:11:36;;;;;;;6.80;2.57;;;;;;;;;;4937917;29;20445;-73
2023/10/04 16:14:02;;;;;;;4.80;2.40;;;;;;;;;;4937187;29;20429;-73
2023/10/04 16:16:28;;;;;;;5.03;2.70;;;;;;;;;;4936938;29;20469;-73
2023/10/04 16:18:54;;;;;;;8.60;2.60;;;;;;;;;;4937416;29;20413;-73
2023/10/04 16:21:21;;;;;;;9.10;2.53;;;;;;;;;;4937262;29;20461;-72
2023/10/04 16:23:47;;;;;;;7.67;2.73;;;;;;;;;;4937161;29;20988;-73
2023/10/04 16:26:14;;;;;;;3.20;2.00;;;;;;;;;;4936511;29;20524;-73
2023/10/04 16:28:41;;;;;;;6.03;2.77;;;;;;;;;;4937348;29;20417;-73
2023/10/04 16:31:07;;;;;;;6.53;2.90;;;;;;;;;;4937236;29;20516;-73
2023/10/04 16:33:33;;;;;;;4.57;2.30;;;;;;;;;;4937330;29;20421;-72
2023/10/04 16:36:00;;;;;;;6.17;2.30;;;;;;;;;;4936966;29;20807;-72
2023/10/04 16:38:26;;;;;;;9.00;3.03;;;;;;;;;;4937250;29;20481;-73
2023/10/04 16:40:52;;;;;;;5.40;2.77;;;;;;;;;;4949288;29;20948;-73
2023/10/04 16:43:18;;;;;;;9.60;3.10;;;;;;;;;;4956088;29;20962;-73
2023/10/04 16:45:44;;;;;;;8.47;2.93;;;;;;;;;;4956134;29;20943;-73
2023/10/04 16:48:10;;;;;;;5.77;2.37;;;;;;;;;;4955756;29;20889;-73
2023/10/04 16:50:36;;;;;;;5.33;2.50;;;;;;;;;;4955901;28;20429;-73
2023/10/04 16:53:02;;;;;;;5.10;3.10;;;;;;;;;;4955715;29;20417;-73
2023/10/04 16:55:29;;;;;;;8.60;3.10;;;;;;;;;;4955584;29;20427;-73
2023/10/04 16:57:55;;;;;;;10.77;3.70;;;;;;;;;;4947139;28;20428;-73
2023/10/04 17:00:21;;;;;;;8.00;2.57;;;;;;;;;;4936215;29;20417;-73
2023/10/04 17:02:48;;;;;;;5.20;2.80;;;;;;;;;;4936449;29;20941;-73
2023/10/04 17:05:14;;;;;;;6.37;3.43;;;;;;;;;;4936666;29;20414;-72
2023/10/04 17:07:42;;;;;;;7.70;2.93;;;;;;;;;;4937289;29;20430;-72
2023/10/04 17:10:08;;;;;;;10.53;3.20;;;;;;;;;;4945475;29;20844;-72
2023/10/04 17:12:34;;;;;;;7.03;2.40;;;;;;;;;;4936163;29;20430;-73
2023/10/04 17:15:01;;;;;;;15.80;4.37;;;;;;;;;;4936646;29;20436;-70
2023/10/04 17:17:27;;;;;;;9.30;3.97;;;;;;;;;;4935891;29;20469;-70
2023/10/04 17:19:55;;;;;;;9.30;4.00;;;;;;;;;;4936095;29;20516;-70
2023/10/04 17:22:22;;;;;;;9.30;5.27;;;;;;;;;;4936084;29;20929;-69
2023/10/04 17:24:47;;;;;;;15.40;4.53;;;;;;;;;;4936495;29;20570;-69
2023/10/04 17:27:15;;;;;;;13.60;4.07;;;;;;;;;;4935949;29;20909;-69
2023/10/04 17:29:42;;;;;;;10.20;4.03;;;;;;;;;;4936354;29;20837;-70
2023/10/04 17:32:08;;;;;;;15.63;5.23;;;;;;;;;;4952696;29;20804;-69
2023/10/04 17:34:34;;;;;;;6.77;3.20;;;;;;;;;;4955277;29;20454;-69
2023/10/04 17:37:01;;;;;;;6.73;2.90;;;;;;;;;;4954999;28;20461;-69
2023/10/04 17:39:29;;;;;;;8.13;3.10;;;;;;;;;;4955306;28;20429;-70
2023/10/04 17:41:56;;;;;;;13.40;3.57;;;;;;;;;;4954309;28;20520;-69
2023/10/04 17:44:22;;;;;;;38.07;8.70;;;;;;;;;;4957724;28;20456;-70
2023/10/04 17:46:48;;;;;;;139.63;33.10;;;;;;;;;;4954650;28;20417;-69
2023/10/04 17:49:14;;;;;;;36.70;9.20;;;;;;;;;;4954719;28;20427;-70
2023/10/04 17:51:40;;;;;;;470.10;134.67;;;;;;;;;;4956947;28;20483;-70
2023/10/04 17:54:07;;;;;;;229.27;55.73;;;;;;;;;;4960292;28;20638;-69
2023/10/04 17:56:33;;;;;;;83.03;21.93;;;;;;;;;;4961355;28;20904;-71
2023/10/04 17:58:59;;;;;;;18.20;4.60;;;;;;;;;;4954377;28;20428;-70
2023/10/04 18:01:25;;;;;;;11.00;4.00;;;;;;;;;;4954314;28;20487;-70
2023/10/04 18:03:51;;;;;;;9.70;3.87;;;;;;;;;;4953729;28;20441;-70
2023/10/04 18:06:20;;;;;;;8.37;2.73;;;;;;;;;;4953808;28;20472;-71
2023/10/04 18:08:46;;;;;;;12.93;4.70;;;;;;;;;;4954117;28;20468;-71
2023/10/04 18:11:12;;;;;;;24.40;9.20;;;;;;;;;;4955941;28;20456;-71
2023/10/04 18:13:40;;;;;;;12.00;3.37;;;;;;;;;;4962815;28;20420;-71
2023/10/04 18:16:07;;;;;;;7.63;4.10;;;;;;;;;;4953725;28;20504;-68
2023/10/04 18:18:33;;;;;;;5.80;2.80;;;;;;;;;;4960582;28;20966;-68
2023/10/04 18:21:00;;;;;;;5.80;3.10;;;;;;;;;;4956190;28;20491;-69
2023/10/04 18:23:26;;;;;;;7.10;2.87;;;;;;;;;;4955531;28;20527;-68
2023/10/04 18:25:52;;;;;;;5.87;3.30;;;;;;;;;;4953710;28;20439;-69
2023/10/04 18:28:18;;;;;;;12.50;3.40;;;;;;;;;;4953931;28;20447;-68
2023/10/04 18:30:44;;;;;;;10.37;3.40;;;;;;;;;;4953385;28;20960;-68
2023/10/04 18:33:11;;;;;;;6.03;3.13;;;;;;;;;;4953753;28;20425;-75
2023/10/04 18:35:37;;;;;;;7.00;3.73;;;;;;;;;;4953657;28;20433;-71
2023/10/04 18:38:03;;;;;;;6.77;3.53;;;;;;;;;;4951334;28;20785;-72
2023/10/04 18:40:29;;;;;;;9.30;3.30;;;;;;;;;;4953739;28;20456;-71
2023/10/04 18:42:55;;;;;;;8.40;3.93;;;;;;;;;;4952759;28;20516;-71
2023/10/04 18:45:22;;;;;;;12.73;3.63;;;;;;;;;;4958747;28;20539;-73
2023/10/04 18:47:48;;;;;;;7.50;3.70;;;;;;;;;;4950045;28;20428;-71
2023/10/04 18:50:17;;;;;;;59.47;18.97;;;;;;;;;;4953522;28;20780;-71
2023/10/04 18:52:46;;;;;;;94.27;31.33;;;;;;;;;;4956524;28;20420;-71
2023/10/04 18:55:14;;;;;;;378.83;116.37;;;;;;;;;;4957581;28;20526;-74
2023/10/04 18:57:40;;;;;;;196.67;55.47;;;;;;;;;;4954968;28;20527;-72
2023/10/04 19:00:07;;;;;;;132.97;36.37;;;;;;;;;;4964808;28;20448;-72
2023/10/04 19:02:33;;;;;;;147.80;39.43;;;;;;;;;;4962871;28;20468;-73
2023/10/04 19:04:59;;;;;;;59.67;19.57;;;;;;;;;;4961326;28;20773;-72
2023/10/04 19:07:26;;;;;;;205.77;58.10;;;;;;;;;;4961256;28;20440;-72
2023/10/04 19:09:52;;;;;;;66.90;20.30;;;;;;;;;;4959394;28;20539;-71
2023/10/04 19:12:18;;;;;;;309.00;94.27;;;;;;;;;;4953273;28;20809;-72
2023/10/04 19:14:44;;;;;;;393.63;120.80;;;;;;;;;;4955800;28;20436;-72
2023/10/04 19:17:11;;;;;;;27.67;9.50;;;;;;;;;;4964147;28;20472;-72
2023/10/04 19:19:38;;;;;;;486.77;160.07;;;;;;;;;;4972532;28;20784;-73
2023/10/04 19:22:04;;;;;;;716.83;232.47;;;;;;;;;;4967643;28;20452;-72
2023/10/04 19:24:30;;;;;;;943.40;305.07;;;;;;;;;;4950778;28;20512;-73
2023/10/04 19:26:56;;;;;;;1102.10;353.53;;;;;;;;;;4964440;28;20507;-73
2023/10/04 19:29:22;;;;;;;1251.07;417.80;;;;;;;;;;4959545;28;20436;-71
2023/10/04 19:31:49;;;;;;;1307.73;451.17;;;;;;;;;;4949892;28;20951;-71
2023/10/04 19:34:15;;;;;;;929.40;315.50;;;;;;;;;;4960234;28;20424;-71
2023/10/04 19:36:41;;;;;;;271.87;85.20;;;;;;;;;;4954877;28;20479;-71